Time;durP1;ratioP1;P1;durP2;ratioP2;P2;SDS_P1;SDS_P2;PMS_P1;PMS_P2;Temp;Humidity;BMP_temperature;BMP_pressure;BME280_temperature;BME280_humidity;BME280_pressure;Samples;Min_cycle;Max_cycle;Signal;HPM_P1;HPM_P2
2023/01/05 00:02:21;;;;;;;;;;;9.30;99.90;;;;;;5124427;28;19951;-70
2023/01/05 00:04:47;;;;;;;;;;;9.30;99.90;;;;;;5124099;28;19920;-70
2023/01/05 00:07:14;;;;;;;;;;;9.30;99.90;;;;;;5124035;28;19986;-70
2023/01/05 00:09:41;;;;;;;;;;;9.30;99.90;;;;;;5120646;28;19990;-70
2023/01/05 00:23:20;;;;;;;;;;;9.30;99.90;;;;;;5061600;28;20177;-71
2023/01/05 00:25:47;;;;;;;;;;;9.40;99.90;;;;;;5085457;28;19990;-71
2023/01/05 00:28:13;;;;;;;;;;;9.40;99.90;;;;;;5103580;28;19951;-70
2023/01/05 00:30:42;;;;;;;;;;;9.40;99.90;;;;;;5103986;28;19947;-70
2023/01/05 00:33:10;;;;;;;;;;;9.40;99.90;;;;;;5103798;28;19920;-71
2023/01/05 00:35:37;;;;;;;;;;;9.40;99.90;;;;;;5103432;28;19927;-71
2023/01/05 00:38:04;;;;;;;;;;;9.50;99.90;;;;;;5103635;28;19927;-70
2023/01/05 00:40:31;;;;;;;;;;;9.50;99.90;;;;;;5112255;28;19963;-70
2023/01/05 00:42:57;;;;;;;;;;;9.40;99.90;;;;;;5124270;28;19947;-70
2023/01/05 00:45:24;;;;;;;;;;;9.40;99.90;;;;;;5123830;28;20250;-70
2023/01/05 00:47:52;;;;;;;;;;;9.40;99.90;;;;;;5121454;28;19963;-71
2023/01/05 00:50:21;;;;;;;;;;;9.40;99.90;;;;;;5125198;28;19920;-70
2023/01/05 00:52:48;;;;;;;;;;;9.40;99.90;;;;;;5128278;28;19920;-71
2023/01/05 00:55:15;;;;;;;;;;;9.40;99.90;;;;;;5119396;28;20049;-70
2023/01/05 00:57:41;;;;;;;;;;;9.30;99.90;;;;;;5108683;28;19983;-71
2023/01/05 01:00:11;;;;;;;;;;;9.30;99.90;;;;;;5107612;28;19978;-70
2023/01/05 01:02:38;;;;;;;;;;;9.30;99.90;;;;;;5107319;28;19920;-70
2023/01/05 01:05:04;;;;;;;;;;;9.20;99.90;;;;;;5107193;28;19920;-70
2023/01/05 01:07:32;;;;;;;;;;;9.20;99.90;;;;;;5106773;28;20116;-71
2023/01/05 01:09:59;;;;;;;;;;;9.20;99.90;;;;;;5117814;28;19979;-71
2023/01/05 01:12:26;;;;;;;;;;;9.20;99.90;;;;;;5123661;28;19927;-70
2023/01/05 01:14:52;;;;;;;;;;;9.20;99.90;;;;;;5127694;28;19962;-70
2023/01/05 01:17:19;;;;;;;;;;;9.20;99.90;;;;;;5127044;28;19987;-70
2023/01/05 01:19:46;;;;;;;;;;;9.20;99.90;;;;;;5127682;28;19979;-70
2023/01/05 01:22:12;;;;;;;;;;;9.30;99.90;;;;;;5127428;28;19974;-70
2023/01/05 01:24:40;;;;;;;;;;;9.30;99.90;;;;;;5123355;28;19926;-71
2023/01/05 01:27:07;;;;;;;;;;;9.30;99.90;;;;;;5120028;28;19979;-70
2023/01/05 01:29:34;;;;;;;;;;;9.30;99.90;;;;;;5127415;28;19920;-70
2023/01/05 01:32:00;;;;;;;;;;;9.30;99.90;;;;;;5127541;28;19974;-70
2023/01/05 01:34:27;;;;;;;;;;;9.30;99.90;;;;;;5127199;28;19955;-70
2023/01/05 01:36:54;;;;;;;;;;;9.30;99.90;;;;;;5126497;28;20183;-70
2023/01/05 01:39:21;;;;;;;;;;;9.30;99.90;;;;;;5119972;28;20152;-70
2023/01/05 01:41:49;;;;;;;;;;;9.30;99.90;;;;;;5114773;28;19927;-71
2023/01/05 01:44:34;;;;;;;;;;;9.30;99.90;;;;;;5106305;28;19986;-70
2023/01/05 01:47:00;;;;;;;;;;;9.30;99.90;;;;;;5106085;28;19961;-70
2023/01/05 01:49:27;;;;;;;;;;;9.30;99.90;;;;;;5106623;28;19988;-71
2023/01/05 01:51:54;;;;;;;;;;;9.30;99.90;;;;;;5106431;28;19983;-70
2023/01/05 01:54:20;;;;;;;;;;;9.30;99.90;;;;;;5113628;28;20179;-70
2023/01/05 01:56:51;;;;;;;;;;;9.30;99.90;;;;;;5115320;28;19951;-70
2023/01/05 01:59:18;;;;;;;;;;;9.30;99.90;;;;;;5106524;28;19956;-69
2023/01/05 02:01:45;;;;;;;;;;;9.40;99.90;;;;;;5105453;28;19927;-70
2023/01/05 02:04:11;;;;;;;;;;;9.40;99.90;;;;;;5105985;28;19926;-70
2023/01/05 02:06:39;;;;;;;;;;;9.40;99.90;;;;;;5105745;28;19951;-70
2023/01/05 02:09:06;;;;;;;;;;;9.40;99.90;;;;;;5111253;28;19920;-71
2023/01/05 02:11:37;;;;;;;;;;;9.40;99.90;;;;;;5109379;28;19920;-70
2023/01/05 02:14:17;;;;;;;;;;;9.40;99.90;;;;;;5106286;28;19955;-70
2023/01/05 02:16:48;;;;;;;;;;;9.40;99.90;;;;;;5102805;28;20286;-70
2023/01/05 02:19:33;;;;;;;;;;;9.40;99.90;;;;;;5105874;28;19990;-71
2023/01/05 02:22:03;;;;;;;;;;;9.40;99.90;;;;;;5106061;28;19920;-71
2023/01/05 02:24:37;;;;;;;;;;;9.40;99.90;;;;;;5105558;28;19920;-70
2023/01/05 02:27:19;;;;;;;;;;;9.40;99.90;;;;;;5109765;28;19952;-71
2023/01/05 02:30:11;;;;;;;;;;;9.40;99.90;;;;;;5105578;28;19926;-70
2023/01/05 02:32:42;;;;;;;;;;;9.50;99.90;;;;;;5106006;28;20115;-70
2023/01/05 02:35:13;;;;;;;;;;;9.40;99.90;;;;;;5105657;28;19952;-70
2023/01/05 02:37:43;;;;;;;;;;;9.40;99.90;;;;;;5104909;28;19926;-70
2023/01/05 02:40:13;;;;;;;;;;;9.40;99.90;;;;;;5113875;28;19992;-70
2023/01/05 02:42:41;;;;;;;;;;;9.30;99.90;;;;;;5123764;28;19995;-70
2023/01/05 02:45:08;;;;;;;;;;;9.40;99.90;;;;;;5125920;28;19947;-70
2023/01/05 02:47:36;;;;;;;;;;;9.40;99.90;;;;;;5125092;28;19972;-70
2023/01/05 02:50:08;;;;;;;;;;;9.40;99.90;;;;;;5125917;22;19947;-96
2023/01/05 02:52:39;;;;;;;;;;;9.40;99.90;;;;;;5091758;28;19908;-95
2023/01/05 02:55:10;;;;;;;;;;;9.40;99.90;;;;;;5098791;28;19913;-95
2023/01/05 02:57:58;;;;;;;;;;;9.40;99.90;;;;;;5087491;28;19932;-94
2023/01/05 03:00:28;;;;;;;;;;;9.60;99.90;;;;;;5080975;28;19920;-94
2023/01/05 18:42:57;;;;;;;;;;;7.80;99.90;;;;;;5075830;22;20074;-73
2023/01/05 18:45:23;;;;;;;;;;;7.90;99.90;;;;;;5060560;28;19927;-72
2023/01/05 18:47:50;;;;;;;;;;;7.90;99.90;;;;;;5061248;28;19956;-73
2023/01/05 18:50:16;;;;;;;;;;;7.80;99.90;;;;;;5061687;28;19960;-71
2023/01/05 18:52:43;;;;;;;;;;;7.90;99.90;;;;;;5061628;28;19927;-73
2023/01/05 18:55:10;;;;;;;;;;;7.90;99.90;;;;;;5055112;27;19988;-73
2023/01/05 18:57:36;;;;;;;;;;;8.00;99.90;;;;;;5048610;28;19921;-73
2023/01/05 19:00:06;;;;;;;;;;;7.90;99.90;;;;;;5058655;28;19956;-73
2023/01/05 19:02:32;;;;;;;;;;;7.90;99.90;;;;;;5059089;28;19921;-73
2023/01/05 19:04:59;;;;;;;;;;;7.90;99.90;;;;;;5041318;28;19972;-71
2023/01/05 19:07:27;;;;;;;;;;;7.90;99.90;;;;;;5040977;28;20251;-73
2023/01/05 19:09:54;;;;;;;;;;;7.90;99.90;;;;;;5041596;28;19921;-72
2023/01/05 19:12:20;;;;;;;;;;;8.00;99.90;;;;;;5054376;28;19983;-73
2023/01/05 19:14:47;;;;;;;;;;;8.00;99.90;;;;;;5061609;27;20276;-73
2023/01/05 19:17:15;;;;;;;;;;;8.10;99.90;;;;;;5055744;28;19980;-72
2023/01/05 19:19:42;;;;;;;;;;;8.10;99.90;;;;;;5044609;27;19980;-72
2023/01/05 19:22:08;;;;;;;;;;;8.10;99.90;;;;;;5041688;28;19921;-73
2023/01/05 19:24:35;;;;;;;;;;;8.10;99.90;;;;;;5041562;28;19928;-73
2023/01/05 19:27:01;;;;;;;;;;;8.10;99.90;;;;;;5044487;28;19973;-73
2023/01/05 19:29:29;;;;;;;;;;;8.10;99.90;;;;;;5038885;28;19956;-72
2023/01/05 19:31:56;;;;;;;;;;;8.10;99.90;;;;;;5058019;28;19988;-72
2023/01/05 19:34:24;;;;;;;;;;;8.10;99.90;;;;;;5061035;27;19927;-73
2023/01/05 19:36:51;;;;;;;;;;;8.20;99.90;;;;;;5039413;28;19963;-73
2023/01/05 19:39:18;;;;;;;;;;;8.20;99.90;;;;;;5038300;28;19928;-73
2023/01/05 19:41:46;;;;;;;;;;;8.20;99.90;;;;;;5040040;28;19984;-73
2023/01/05 19:44:13;;;;;;;;;;;8.20;99.90;;;;;;5041024;28;19952;-73
2023/01/05 19:46:40;;;;;;;;;;;8.20;99.90;;;;;;5041495;28;19997;-71
2023/01/05 19:49:07;;;;;;;;;;;8.20;99.90;;;;;;5048628;28;20180;-73
2023/01/05 19:51:35;;;;;;;;;;;8.20;99.90;;;;;;5058375;28;19921;-73
2023/01/05 19:54:03;;;;;;;;;;;8.20;99.90;;;;;;5060895;28;19921;-73
2023/01/05 19:56:31;;;;;;;;;;;8.30;99.90;;;;;;5059894;28;19996;-73
2023/01/05 19:58:58;;;;;;;;;;;8.20;99.90;;;;;;5060520;28;19980;-72
2023/01/05 20:01:26;;;;;;;;;;;8.20;99.90;;;;;;5050951;27;19964;-71
2023/01/05 20:03:53;;;;;;;;;;;8.30;99.90;;;;;;5040565;28;20181;-72
2023/01/05 20:06:21;;;;;;;;;;;8.30;99.90;;;;;;5040098;28;19921;-72
2023/01/05 20:08:51;;;;;;;;;;;8.30;99.90;;;;;;5040469;28;20267;-72
2023/01/05 20:11:18;;;;;;;;;;;8.30;99.90;;;;;;5060955;27;19928;-72
2023/01/05 20:13:49;;;;;;;;;;;8.30;99.90;;;;;;5060493;27;20292;-71
2023/01/05 20:16:16;;;;;;;;;;;8.30;99.90;;;;;;5059800;27;19956;-72
2023/01/05 20:18:42;;;;;;;;;;;8.30;99.90;;;;;;5043593;27;19992;-72
2023/01/05 20:21:09;;;;;;;;;;;8.40;99.90;;;;;;5040775;28;19927;-72
2023/01/05 20:23:37;;;;;;;;;;;8.40;99.90;;;;;;5040243;28;19952;-72
2023/01/05 20:26:07;;;;;;;;;;;8.40;99.90;;;;;;5039935;28;19988;-72
2023/01/05 20:28:33;;;;;;;;;;;8.40;99.90;;;;;;5040058;28;19981;-72
2023/01/05 20:31:00;;;;;;;;;;;8.40;99.90;;;;;;5062713;28;19932;-72
2023/01/05 20:33:27;;;;;;;;;;;8.40;99.90;;;;;;5080564;28;19920;-72
2023/01/05 20:35:53;;;;;;;;;;;8.40;99.90;;;;;;5079905;28;19956;-72
2023/01/05 20:38:20;;;;;;;;;;;8.40;99.90;;;;;;5077268;28;20150;-72
2023/01/05 20:40:47;;;;;;;;;;;8.40;99.90;;;;;;5063173;28;20260;-72
2023/01/05 20:43:15;;;;;;;;;;;8.40;99.90;;;;;;5060109;27;20213;-72
2023/01/05 20:45:41;;;;;;;;;;;8.40;99.90;;;;;;5060025;27;19921;-72
2023/01/05 20:48:08;;;;;;;;;;;8.40;99.90;;;;;;5059914;27;20228;-71
2023/01/05 20:50:35;;;;;;;;;;;8.40;99.90;;;;;;5060427;27;19943;-72
2023/01/05 20:53:01;;;;;;;;;;;8.40;99.90;;;;;;5060265;28;19925;-72
2023/01/05 20:55:28;;;;;;;;;;;8.40;99.90;;;;;;5060316;27;19987;-72
2023/01/05 20:57:54;;;;;;;;;;;8.40;99.90;;;;;;5059601;27;20177;-72
2023/01/05 21:00:22;;;;;;;;;;;8.40;99.90;;;;;;5060027;27;19988;-72
2023/01/05 21:02:50;;;;;;;;;;;8.40;99.90;;;;;;5053608;27;19929;-72
2023/01/05 21:05:17;;;;;;;;;;;8.40;99.90;;;;;;5043426;28;19978;-72
2023/01/05 21:07:43;;;;;;;;;;;8.40;99.90;;;;;;5052878;28;19921;-71
2023/01/05 21:10:10;;;;;;;;;;;8.40;99.90;;;;;;5051229;28;19921;-72
2023/01/05 21:12:37;;;;;;;;;;;8.30;99.90;;;;;;5043692;28;19988;-72
2023/01/05 21:15:04;;;;;;;;;;;8.30;99.90;;;;;;5043500;28;19948;-72
2023/01/05 21:17:32;;;;;;;;;;;8.40;99.90;;;;;;5042548;28;19988;-72
2023/01/05 21:19:59;;;;;;;;;;;8.30;99.90;;;;;;5043046;28;20258;-72
2023/01/05 21:22:26;;;;;;;;;;;8.40;99.90;;;;;;5043167;28;19963;-71
2023/01/05 21:24:52;;;;;;;;;;;8.40;99.90;;;;;;5042936;28;19928;-72
2023/01/05 21:27:19;;;;;;;;;;;8.40;99.90;;;;;;5042534;28;19937;-72
2023/01/05 21:29:46;;;;;;;;;;;8.40;99.90;;;;;;5043255;28;19928;-70
2023/01/05 21:32:12;;;;;;;;;;;8.40;99.90;;;;;;5043410;28;19949;-72
2023/01/05 21:34:40;;;;;;;;;;;8.40;99.90;;;;;;5043063;28;20152;-72
2023/01/05 21:37:07;;;;;;;;;;;8.40;99.90;;;;;;5042254;28;20116;-71
2023/01/05 21:39:34;;;;;;;;;;;8.40;99.90;;;;;;5040404;28;19959;-72
2023/01/05 21:44:44;;;;;;;;;;;8.40;99.90;;;;;;5042569;28;19925;-72
2023/01/05 21:47:11;;;;;;;;;;;8.30;99.90;;;;;;5042225;28;19975;-72
2023/01/05 21:49:38;;;;;;;;;;;8.40;99.90;;;;;;5042878;28;19921;-72
2023/01/05 21:57:34;;;;;;;;;;;8.40;99.90;;;;;;5042186;28;19931;-72
2023/01/05 22:00:01;;;;;;;;;;;8.30;99.90;;;;;;5042850;28;19964;-72
2023/01/05 22:02:27;;;;;;;;;;;8.30;99.90;;;;;;5046660;28;19952;-72
2023/01/05 22:04:54;;;;;;;;;;;8.30;99.90;;;;;;5062740;27;19980;-72
2023/01/05 22:07:22;;;;;;;;;;;8.30;99.90;;;;;;5061943;27;20272;-71
2023/01/05 22:09:48;;;;;;;;;;;8.30;99.90;;;;;;5062418;27;20317;-72
2023/01/05 22:12:15;;;;;;;;;;;8.30;99.90;;;;;;5062165;28;19921;-71
2023/01/05 22:14:42;;;;;;;;;;;8.30;99.90;;;;;;5052222;27;19963;-72
2023/01/05 22:17:08;;;;;;;;;;;8.40;99.90;;;;;;5039222;28;19942;-72
2023/01/05 22:19:35;;;;;;;;;;;8.30;99.90;;;;;;5041129;28;19928;-70
2023/01/05 22:22:02;;;;;;;;;;;8.40;99.90;;;;;;5041834;27;19984;-72
2023/01/05 22:24:30;;;;;;;;;;;8.40;99.90;;;;;;5047724;28;19921;-72
2023/01/05 22:26:57;;;;;;;;;;;8.40;99.90;;;;;;5041267;28;20309;-72
2023/01/05 22:29:23;;;;;;;;;;;8.40;99.90;;;;;;5042157;28;19997;-72
2023/01/05 22:31:50;;;;;;;;;;;8.40;99.90;;;;;;5041579;28;20000;-72
2023/01/05 22:34:17;;;;;;;;;;;8.40;99.90;;;;;;5057071;28;19987;-72
2023/01/05 22:36:44;;;;;;;;;;;8.40;99.90;;;;;;5061258;27;20251;-72
2023/01/05 22:39:11;;;;;;;;;;;8.30;99.90;;;;;;5058865;27;20003;-72
2023/01/05 22:41:39;;;;;;;;;;;8.30;99.90;;;;;;5061796;28;19921;-72
2023/01/05 22:44:07;;;;;;;;;;;8.30;99.90;;;;;;5059583;28;19948;-72
2023/01/05 22:46:34;;;;;;;;;;;8.30;99.90;;;;;;5061553;27;20200;-72
2023/01/05 22:49:00;;;;;;;;;;;8.30;99.90;;;;;;5061954;28;19987;-72
2023/01/05 22:51:29;;;;;;;;;;;8.30;99.90;;;;;;5051995;28;20215;-72
2023/01/05 22:53:55;;;;;;;;;;;8.30;99.90;;;;;;5044956;28;19990;-72
2023/01/05 22:56:23;;;;;;;;;;;8.20;99.90;;;;;;5056916;28;20312;-70
2023/01/05 22:58:51;;;;;;;;;;;8.30;99.90;;;;;;5053725;27;19991;-72
2023/01/05 23:01:19;;;;;;;;;;;8.30;99.90;;;;;;5041905;28;19988;-72
2023/01/05 23:03:46;;;;;;;;;;;8.30;99.90;;;;;;5038601;28;19922;-72
2023/01/05 23:06:13;;;;;;;;;;;8.30;99.90;;;;;;5040605;28;20171;-71
2023/01/05 23:08:40;;;;;;;;;;;8.30;99.90;;;;;;5041949;28;19927;-72
2023/01/05 23:11:08;;;;;;;;;;;8.30;99.90;;;;;;5041537;27;19987;-72
2023/01/05 23:13:36;;;;;;;;;;;8.30;99.90;;;;;;5040680;28;20360;-72
2023/01/05 23:16:05;;;;;;;;;;;8.30;99.90;;;;;;5040794;28;19927;-72
2023/01/05 23:18:32;;;;;;;;;;;8.30;99.90;;;;;;5041356;28;20255;-72
2023/01/05 23:20:59;;;;;;;;;;;8.30;99.90;;;;;;5041491;28;20169;-72
2023/01/05 23:23:26;;;;;;;;;;;8.30;99.90;;;;;;5041768;28;19986;-72
2023/01/05 23:25:53;;;;;;;;;;;8.20;99.90;;;;;;5048485;28;19921;-72
2023/01/05 23:28:20;;;;;;;;;;;8.20;99.90;;;;;;5061299;27;19963;-72
2023/01/05 23:30:48;;;;;;;;;;;8.30;99.90;;;;;;5060974;28;19921;-72
2023/01/05 23:33:16;;;;;;;;;;;8.30;99.90;;;;;;5061324;27;20175;-72
2023/01/05 23:35:43;;;;;;;;;;;8.30;99.90;;;;;;5052490;27;19997;-72
2023/01/05 23:38:12;;;;;;;;;;;8.30;99.90;;;;;;5050061;28;20001;-72
2023/01/05 23:40:40;;;;;;;;;;;8.30;99.90;;;;;;5060517;28;19996;-70
2023/01/05 23:43:06;;;;;;;;;;;8.30;99.90;;;;;;5060993;27;19921;-72
2023/01/05 23:45:33;;;;;;;;;;;8.30;99.90;;;;;;5061283;27;19959;-72
2023/01/05 23:48:00;;;;;;;;;;;8.20;99.90;;;;;;5067211;27;19992;-71
2023/01/05 23:50:28;;;;;;;;;;;8.30;99.90;;;;;;5076681;28;19983;-72
2023/01/05 23:52:55;;;;;;;;;;;8.30;99.90;;;;;;5081055;28;19926;-71
2023/01/05 23:55:21;;;;;;;;;;;8.40;99.90;;;;;;5080914;28;20176;-72
2023/01/05 23:57:48;;;;;;;;;;;8.40;99.90;;;;;;5080421;28;20183;-72
